createdAt,value
2023-01-07T00:02:22.273Z,14.48
2023-01-07T00:04:47.241Z,14.02
2023-01-07T00:07:11.950Z,13.68
2023-01-07T00:09:35.702Z,13.47
2023-01-07T00:11:59.277Z,13.17
2023-01-07T00:14:22.801Z,14.13
2023-01-07T00:16:46.799Z,13.90
2023-01-07T00:19:14.895Z,13.90
2023-01-07T00:21:39.860Z,13.75
2023-01-07T00:24:06.140Z,13.57
2023-01-07T00:26:33.352Z,13.10
2023-01-07T00:28:56.876Z,14.90
2023-01-07T00:31:23.443Z,13.77
2023-01-07T00:33:51.876Z,12.93
2023-01-07T00:36:15.593Z,13.63
2023-01-07T00:38:40.711Z,13.63
2023-01-07T00:41:04.496Z,14.17
2023-01-07T00:43:29.548Z,12.80
2023-01-07T00:45:53.151Z,13.00
2023-01-07T00:48:18.445Z,12.75
2023-01-07T00:50:42.414Z,13.25
2023-01-07T00:53:06.407Z,12.07
2023-01-07T00:55:31.934Z,12.90
2023-01-07T00:57:56.326Z,13.70
2023-01-07T01:00:22.647Z,13.23
2023-01-07T01:02:47.144Z,14.20
2023-01-07T01:05:11.490Z,13.53
2023-01-07T01:07:35.903Z,12.30
2023-01-07T01:09:59.547Z,12.50
2023-01-07T01:12:24.493Z,13.07
2023-01-07T01:14:48.214Z,12.57
2023-01-07T01:17:11.782Z,12.37
2023-01-07T01:19:35.449Z,14.40
2023-01-07T01:21:58.996Z,13.47
2023-01-07T01:24:22.659Z,12.73
2023-01-07T01:26:46.179Z,12.67
2023-01-07T01:29:11.238Z,13.00
2023-01-07T01:31:35.365Z,12.20
2023-01-07T01:34:00.044Z,12.70
2023-01-07T01:36:24.240Z,12.17
2023-01-07T01:38:49.635Z,11.60
2023-01-07T01:41:16.717Z,12.03
2023-01-07T01:43:44.476Z,12.60
2023-01-07T01:46:16.551Z,12.10
2023-01-07T01:48:48.097Z,12.90
2023-01-07T01:51:12.800Z,12.60
2023-01-07T01:53:37.379Z,12.50
2023-01-07T01:56:05.973Z,13.13
2023-01-07T01:58:46.318Z,12.30
2023-01-07T02:01:11.681Z,12.77
2023-01-07T02:03:37.941Z,12.30
2023-01-07T02:06:02.366Z,12.63
2023-01-07T02:08:26.017Z,12.17
2023-01-07T02:11:30.590Z,12.40
2023-01-07T02:14:13.475Z,11.80
2023-01-07T02:16:45.467Z,12.17
2023-01-07T02:19:34.562Z,12.97
2023-01-07T02:22:07.795Z,13.53
2023-01-07T02:25:01.128Z,12.93
2023-01-07T02:28:00.515Z,13.33
2023-01-07T02:30:52.336Z,11.70
2023-01-07T02:33:42.545Z,12.30
2023-01-07T02:36:40.370Z,11.77
2023-01-07T02:39:25.830Z,10.60
2023-01-07T02:41:58.773Z,11.90
2023-01-07T02:44:33.549Z,11.80
2023-01-07T02:47:05.286Z,11.43
2023-01-07T02:49:30.276Z,11.83
2023-01-07T02:51:54.739Z,11.57
2023-01-07T02:54:23.814Z,13.07
2023-01-07T02:57:15.759Z,12.43
2023-01-07T03:00:04.008Z,12.07
2023-01-07T03:02:47.580Z,12.27
2023-01-07T03:05:29.277Z,12.77
2023-01-07T03:08:09.027Z,12.00
2023-01-07T03:10:41.806Z,11.23
2023-01-07T03:13:09.646Z,12.00
2023-01-07T03:15:41.604Z,12.67
2023-01-07T03:18:10.306Z,12.40
2023-01-07T03:20:39.011Z,11.57
2023-01-07T03:23:07.362Z,12.33
2023-01-07T03:25:34.366Z,11.90
2023-01-07T03:28:00.578Z,11.43
2023-01-07T03:30:27.816Z,11.97
2023-01-07T03:32:57.884Z,11.97
2023-01-07T03:35:23.206Z,12.43
2023-01-07T03:37:50.252Z,11.50
2023-01-07T03:40:14.207Z,11.70
2023-01-07T03:42:40.583Z,12.30
2023-01-07T03:45:13.430Z,11.47
2023-01-07T03:47:40.962Z,11.63
2023-01-07T03:50:04.886Z,13.03
2023-01-07T03:52:28.493Z,11.77
2023-01-07T03:54:53.475Z,12.30
2023-01-07T03:57:17.167Z,10.90
2023-01-07T03:59:40.828Z,11.73
2023-01-07T04:02:04.610Z,11.20
2023-01-07T04:04:28.658Z,12.00
2023-01-07T04:06:52.499Z,11.33
2023-01-07T04:09:18.822Z,11.10
2023-01-07T04:11:44.346Z,11.03
2023-01-07T04:14:08.362Z,11.90
2023-01-07T04:16:31.990Z,11.43
2023-01-07T04:18:56.042Z,11.53
2023-01-07T04:21:19.851Z,12.00
2023-01-07T04:23:43.377Z,10.87
2023-01-07T04:26:07.550Z,11.03
2023-01-07T04:28:32.501Z,10.87
2023-01-07T04:30:56.375Z,10.73
2023-01-07T04:33:20.433Z,10.73
2023-01-07T04:35:48.048Z,11.63
2023-01-07T04:38:12.636Z,10.10
2023-01-07T04:40:36.249Z,11.50
2023-01-07T04:43:00.432Z,10.67
2023-01-07T04:45:26.395Z,11.17
2023-01-07T04:47:49.953Z,10.93
2023-01-07T04:50:14.738Z,11.53
2023-01-07T04:52:38.343Z,10.43
2023-01-07T04:55:02.614Z,11.70
2023-01-07T04:57:26.695Z,11.07
2023-01-07T04:59:50.730Z,12.33
2023-01-07T05:02:15.744Z,11.37
2023-01-07T05:04:39.474Z,11.73
2023-01-07T05:07:03.655Z,12.63
2023-01-07T05:09:27.276Z,12.27
2023-01-07T05:11:50.931Z,12.67
2023-01-07T05:14:15.106Z,12.63
2023-01-07T05:16:39.956Z,11.73
2023-01-07T05:19:08.262Z,12.70
2023-01-07T05:21:35.635Z,13.43
2023-01-07T05:23:59.343Z,13.07
2023-01-07T05:26:23.804Z,13.97
2023-01-07T05:28:47.358Z,13.00
2023-01-07T05:31:11.418Z,12.83
2023-01-07T05:33:35.443Z,12.60
2023-01-07T05:36:00.926Z,13.30
2023-01-07T05:38:24.926Z,13.83
2023-01-07T05:40:50.213Z,14.97
2023-01-07T05:43:18.343Z,14.23
2023-01-07T05:45:44.436Z,14.33
2023-01-07T05:48:08.363Z,14.13
2023-01-07T05:50:31.871Z,13.90
2023-01-07T05:52:58.160Z,13.47
2023-01-07T05:55:21.757Z,14.30
2023-01-07T05:57:45.356Z,13.63
2023-01-07T06:00:11.111Z,14.47
2023-01-07T06:02:37.791Z,14.60
2023-01-07T06:05:01.387Z,14.17
2023-01-07T06:07:25.042Z,14.63
2023-01-07T06:09:50.005Z,15.57
2023-01-07T06:12:13.551Z,15.50
2023-01-07T06:14:37.059Z,15.30
2023-01-07T06:17:00.746Z,15.33
2023-01-07T06:19:24.247Z,14.57
2023-01-07T06:21:47.809Z,15.60
2023-01-07T06:24:12.442Z,15.27
2023-01-07T06:26:37.617Z,16.20
2023-01-07T06:29:01.138Z,15.67
2023-01-07T06:31:24.754Z,16.70
2023-01-07T06:33:48.385Z,16.10
2023-01-07T06:36:12.215Z,16.60
2023-01-07T06:38:36.083Z,17.42
2023-01-07T06:40:59.812Z,17.63
2023-01-07T06:43:24.727Z,17.40
2023-01-07T06:45:48.539Z,18.77
2023-01-07T06:48:12.084Z,19.10
2023-01-07T06:50:35.641Z,19.35
2023-01-07T06:52:59.167Z,18.58
2023-01-07T06:55:22.750Z,22.02
2023-01-07T06:57:46.394Z,19.35
2023-01-07T07:00:13.412Z,20.00
2023-01-07T07:02:37.035Z,19.08
2023-01-07T07:05:00.674Z,19.83
2023-01-07T07:07:25.522Z,19.85
2023-01-07T07:09:51.190Z,19.92
2023-01-07T07:12:15.087Z,20.63
2023-01-07T07:14:38.696Z,19.73
2023-01-07T07:17:03.832Z,20.00
2023-01-07T07:19:27.424Z,20.13
2023-01-07T07:21:50.943Z,19.55
2023-01-07T07:24:14.754Z,19.17
2023-01-07T07:26:38.252Z,20.73
2023-01-07T07:29:01.800Z,19.27
2023-01-07T07:31:25.447Z,20.25
2023-01-07T07:33:50.462Z,18.77
2023-01-07T07:36:13.983Z,18.88
2023-01-07T07:38:37.836Z,19.23
2023-01-07T07:41:02.635Z,18.88
2023-01-07T07:43:26.192Z,18.55
2023-01-07T07:45:49.753Z,19.27
2023-01-07T07:48:16.493Z,18.42
2023-01-07T07:50:41.449Z,18.92
2023-01-07T07:53:05.770Z,18.38
2023-01-07T07:55:29.547Z,18.88
2023-01-07T07:57:55.277Z,17.75
2023-01-07T08:00:19.168Z,17.65
2023-01-07T08:02:42.776Z,18.20
2023-01-07T08:05:08.206Z,17.35
2023-01-07T08:07:33.930Z,17.17
2023-01-07T08:09:58.018Z,16.95
2023-01-07T08:12:21.566Z,17.38
2023-01-07T08:14:45.074Z,16.83
2023-01-07T08:17:08.690Z,16.13
2023-01-07T08:19:32.238Z,16.98
2023-01-07T08:21:55.857Z,16.00
2023-01-07T08:24:20.837Z,16.10
2023-01-07T08:26:44.424Z,16.55
2023-01-07T08:29:08.898Z,14.88
2023-01-07T08:31:32.554Z,16.35
2023-01-07T08:33:56.120Z,16.10
2023-01-07T08:36:23.629Z,15.02
2023-01-07T08:38:47.317Z,16.05
2023-01-07T08:41:12.335Z,16.10
2023-01-07T08:43:36.117Z,16.85
2023-01-07T08:45:59.656Z,16.80
2023-01-07T08:48:23.448Z,21.13
2023-01-07T08:50:52.152Z,15.88
2023-01-07T08:53:15.662Z,28.02
2023-01-07T08:55:39.258Z,24.45
2023-01-07T08:58:04.169Z,31.35
2023-01-07T09:00:28.183Z,17.33
2023-01-07T09:02:52.042Z,19.70
2023-01-07T09:05:15.683Z,17.50
2023-01-07T09:07:39.705Z,16.70
2023-01-07T09:10:03.804Z,17.05
2023-01-07T09:12:27.344Z,15.23
2023-01-07T09:14:52.259Z,15.25
2023-01-07T09:17:15.827Z,14.48
2023-01-07T09:19:39.437Z,17.40
2023-01-07T09:22:02.974Z,16.48
2023-01-07T09:24:26.653Z,13.70
2023-01-07T09:26:50.188Z,36.55
2023-01-07T09:29:13.938Z,13.00
2023-01-07T09:31:38.856Z,16.42
2023-01-07T09:34:02.552Z,13.25
2023-01-07T09:36:27.054Z,11.63
2023-01-07T09:38:50.657Z,13.23
2023-01-07T09:41:28.680Z,13.13
2023-01-07T09:44:01.901Z,12.98
2023-01-07T09:46:29.206Z,12.63
2023-01-07T09:48:59.309Z,12.50
2023-01-07T09:51:28.877Z,12.10
2023-01-07T09:53:55.438Z,12.10
2023-01-07T09:56:25.293Z,12.88
2023-01-07T09:58:49.757Z,11.45
2023-01-07T10:01:26.887Z,10.43
2023-01-07T10:04:08.981Z,10.50
2023-01-07T10:06:43.917Z,9.65
2023-01-07T10:09:19.676Z,9.63
2023-01-07T10:11:55.492Z,10.80
2023-01-07T10:14:51.104Z,8.13
2023-01-07T10:17:31.274Z,9.13
2023-01-07T10:20:03.667Z,8.25
2023-01-07T10:22:32.391Z,8.73
2023-01-07T10:25:01.549Z,8.90
2023-01-07T10:27:33.966Z,8.07
2023-01-07T10:30:03.250Z,8.60
2023-01-07T10:32:33.926Z,7.97
2023-01-07T10:35:01.578Z,8.27
2023-01-07T10:37:31.542Z,7.30
2023-01-07T10:40:16.582Z,7.85
2023-01-07T10:42:45.904Z,7.15
2023-01-07T10:45:50.189Z,7.28
2023-01-07T10:48:40.951Z,6.97
2023-01-07T10:51:23.405Z,5.88
2023-01-07T10:54:00.467Z,6.55
2023-01-07T10:56:30.759Z,6.40
2023-01-07T10:58:54.371Z,6.20
2023-01-07T11:01:26.191Z,6.60
2023-01-07T11:03:52.296Z,6.18
2023-01-07T11:06:24.557Z,6.30
2023-01-07T11:08:50.104Z,6.00
2023-01-07T11:11:17.655Z,5.80
2023-01-07T11:13:44.535Z,6.07
2023-01-07T11:16:12.525Z,5.90
2023-01-07T11:18:45.537Z,6.28
2023-01-07T11:21:09.244Z,5.40
2023-01-07T11:23:54.210Z,4.88
2023-01-07T11:26:24.701Z,5.05
2023-01-07T11:28:55.087Z,5.00
2023-01-07T11:31:19.429Z,5.28
2023-01-07T11:34:01.934Z,5.20
2023-01-07T11:36:41.999Z,4.85
2023-01-07T11:39:20.205Z,4.60
2023-01-07T11:41:55.644Z,4.53
2023-01-07T11:44:19.229Z,4.70
2023-01-07T11:46:45.733Z,4.30
2023-01-07T11:49:25.390Z,4.38
2023-01-07T11:51:49.767Z,4.43
2023-01-07T11:54:22.815Z,4.47
2023-01-07T11:56:46.415Z,4.50
2023-01-07T11:59:28.604Z,4.18
2023-01-07T12:01:54.513Z,4.72
2023-01-07T12:04:23.988Z,4.22
2023-01-07T12:06:50.335Z,4.00
2023-01-07T12:09:25.691Z,4.13
2023-01-07T12:11:49.603Z,3.63
2023-01-07T12:14:27.512Z,3.78
2023-01-07T12:16:52.172Z,3.70
2023-01-07T12:19:32.884Z,3.92
2023-01-07T12:22:12.794Z,3.85
2023-01-07T12:25:06.931Z,3.40
2023-01-07T12:27:43.622Z,3.10
2023-01-07T12:30:36.434Z,3.08
2023-01-07T12:33:16.402Z,3.03
2023-01-07T12:35:43.743Z,2.78
2023-01-07T12:38:15.289Z,2.78
2023-01-07T12:40:43.643Z,2.53
2023-01-07T12:43:15.425Z,2.65
2023-01-07T12:45:45.867Z,2.35
2023-01-07T12:48:20.015Z,2.35
2023-01-07T12:50:48.479Z,2.67
2023-01-07T12:53:18.278Z,2.30
2023-01-07T12:55:47.876Z,2.60
2023-01-07T12:58:19.185Z,2.30
2023-01-07T13:00:49.516Z,2.45
2023-01-07T13:03:31.703Z,2.20
2023-01-07T13:06:01.914Z,2.90
2023-01-07T13:08:36.220Z,2.50
2023-01-07T13:11:06.622Z,2.42
2023-01-07T13:13:38.853Z,2.10
2023-01-07T13:16:02.582Z,2.53
2023-01-07T13:18:26.155Z,2.00
2023-01-07T13:21:01.459Z,2.30
2023-01-07T13:23:37.512Z,2.10
2023-01-07T13:26:21.229Z,2.10
2023-01-07T13:29:22.559Z,2.00
2023-01-07T13:32:19.498Z,1.95
2023-01-07T13:34:58.865Z,2.28
2023-01-07T13:37:44.535Z,2.45
2023-01-07T13:40:25.858Z,2.17
2023-01-07T13:42:56.563Z,1.95
2023-01-07T13:45:24.250Z,2.00
2023-01-07T13:47:51.288Z,2.08
2023-01-07T13:50:32.812Z,2.17
2023-01-07T13:53:03.064Z,2.53
2023-01-07T13:55:35.853Z,2.30
2023-01-07T13:58:02.799Z,2.13
2023-01-07T14:01:02.031Z,2.20
2023-01-07T14:03:50.639Z,2.60
2023-01-07T14:06:47.452Z,2.58
2023-01-07T14:09:25.657Z,2.40
2023-01-07T14:12:22.921Z,2.53
2023-01-07T14:15:13.844Z,2.80
2023-01-07T14:17:48.204Z,2.70
2023-01-07T14:20:20.267Z,2.50
2023-01-07T14:22:53.161Z,2.55
2023-01-07T14:25:55.547Z,2.78
2023-01-07T14:29:02.705Z,3.00
2023-01-07T14:31:30.064Z,2.50
2023-01-07T14:33:58.198Z,2.90
2023-01-07T14:36:22.259Z,2.85
2023-01-07T14:39:01.390Z,3.13
2023-01-07T14:41:25.242Z,2.80
2023-01-07T14:44:06.376Z,2.92
2023-01-07T14:46:49.691Z,2.60
2023-01-07T14:49:33.188Z,3.00
2023-01-07T14:52:04.422Z,3.00
2023-01-07T14:55:04.637Z,3.08
2023-01-07T14:57:41.297Z,3.28
2023-01-07T15:00:42.386Z,3.10
2023-01-07T15:03:40.740Z,3.38
2023-01-07T15:06:28.892Z,3.20
2023-01-07T15:09:14.133Z,3.38
2023-01-07T15:11:57.163Z,3.53
2023-01-07T15:14:49.296Z,3.65
2023-01-07T15:17:16.341Z,4.38
2023-01-07T15:19:42.201Z,3.38
2023-01-07T15:22:22.694Z,4.20
2023-01-07T15:24:53.155Z,4.22
2023-01-07T15:27:23.710Z,4.47
2023-01-07T15:29:55.830Z,4.85
2023-01-07T15:32:33.765Z,4.35
2023-01-07T15:34:59.146Z,5.13
2023-01-07T15:37:22.923Z,4.65
2023-01-07T15:39:52.108Z,5.03
2023-01-07T15:42:18.897Z,4.55
2023-01-07T15:44:44.198Z,4.50
2023-01-07T15:47:32.222Z,5.63
2023-01-07T15:49:55.871Z,4.88
2023-01-07T15:52:27.468Z,5.25
2023-01-07T15:54:51.086Z,5.50
2023-01-07T15:57:21.993Z,5.50
2023-01-07T15:59:49.113Z,5.78
2023-01-07T16:02:24.305Z,5.50
2023-01-07T16:04:49.517Z,6.05
2023-01-07T16:07:29.204Z,6.40
2023-01-07T16:09:53.391Z,5.95
2023-01-07T16:12:39.403Z,6.32
2023-01-07T16:15:20.223Z,6.35
2023-01-07T16:17:52.184Z,7.30
2023-01-07T16:20:23.970Z,6.90
2023-01-07T16:22:49.107Z,6.93
2023-01-07T16:25:21.538Z,7.00
2023-01-07T16:27:45.397Z,6.45
2023-01-07T16:30:15.955Z,7.10
2023-01-07T16:32:40.134Z,7.50
2023-01-07T16:35:09.086Z,7.78
2023-01-07T16:37:33.681Z,8.07
2023-01-07T16:39:58.785Z,8.38
2023-01-07T16:42:27.444Z,8.68
2023-01-07T16:45:06.955Z,8.52
2023-01-07T16:47:32.766Z,8.98
2023-01-07T16:49:58.283Z,9.77
2023-01-07T16:52:23.226Z,9.00
2023-01-07T16:54:47.785Z,8.45
2023-01-07T16:57:33.799Z,8.95
2023-01-07T16:59:59.399Z,8.60
2023-01-07T17:02:32.229Z,7.95
2023-01-07T17:04:57.630Z,6.95
2023-01-07T17:07:26.374Z,6.88
2023-01-07T17:09:53.244Z,7.15
2023-01-07T17:12:31.274Z,6.28
2023-01-07T17:14:54.840Z,8.30
2023-01-07T17:17:36.007Z,5.65
2023-01-07T17:20:16.018Z,3.58
2023-01-07T17:22:40.650Z,4.18
2023-01-07T17:25:08.148Z,4.10
2023-01-07T17:27:33.506Z,4.00
2023-01-07T17:29:58.112Z,4.55
2023-01-07T17:32:22.746Z,3.88
2023-01-07T17:34:46.313Z,3.67
2023-01-07T17:37:16.079Z,3.88
2023-01-07T17:39:39.687Z,3.83
2023-01-07T17:42:20.772Z,4.05
2023-01-07T17:44:45.842Z,3.08
2023-01-07T17:47:12.255Z,3.17
2023-01-07T17:49:35.829Z,3.40
2023-01-07T17:51:59.403Z,3.38
2023-01-07T17:54:26.158Z,2.90
2023-01-07T17:56:50.357Z,3.10
2023-01-07T17:59:17.075Z,3.20
2023-01-07T18:01:42.276Z,3.30
2023-01-07T18:04:06.070Z,3.53
2023-01-07T18:06:33.462Z,3.90
2023-01-07T18:08:57.730Z,3.90
2023-01-07T18:11:41.073Z,3.85
2023-01-07T18:14:04.819Z,8.02
2023-01-07T18:16:28.947Z,4.65
2023-01-07T18:18:54.125Z,5.03
2023-01-07T18:21:17.649Z,3.30
2023-01-07T18:23:41.526Z,3.65
2023-01-07T18:26:06.777Z,3.20
2023-01-07T18:28:31.299Z,3.30
2023-01-07T18:30:54.846Z,3.90
2023-01-07T18:33:18.484Z,3.40
2023-01-07T18:35:43.823Z,3.80
2023-01-07T18:38:11.395Z,3.58
2023-01-07T18:40:35.041Z,3.95
2023-01-07T18:43:00.920Z,3.88
2023-01-07T18:45:24.855Z,4.28
2023-01-07T18:47:48.555Z,4.18
2023-01-07T18:50:12.119Z,4.15
2023-01-07T18:52:39.326Z,4.40
2023-01-07T18:55:02.857Z,4.50
2023-01-07T18:57:27.280Z,4.78
2023-01-07T18:59:50.835Z,4.63
2023-01-07T19:02:18.144Z,4.88
2023-01-07T19:04:41.641Z,5.40
2023-01-07T19:07:05.726Z,4.10
2023-01-07T19:09:31.964Z,4.35
2023-01-07T19:11:56.233Z,4.13
2023-01-07T19:14:19.877Z,4.40
2023-01-07T19:16:44.048Z,4.38
2023-01-07T19:19:07.681Z,4.80
2023-01-07T19:21:32.504Z,5.13
2023-01-07T19:23:56.102Z,5.13
2023-01-07T19:26:21.188Z,4.88
2023-01-07T19:28:44.784Z,5.10
2023-01-07T19:31:09.834Z,4.25
2023-01-07T19:33:33.389Z,4.57
2023-01-07T19:36:03.805Z,3.85
2023-01-07T19:38:27.799Z,4.07
2023-01-07T19:40:51.736Z,4.07
2023-01-07T19:43:16.833Z,3.85
2023-01-07T19:45:40.614Z,4.00
2023-01-07T19:48:04.259Z,4.30
2023-01-07T19:50:28.039Z,4.28
2023-01-07T19:52:51.639Z,3.78
2023-01-07T19:55:15.658Z,3.53
2023-01-07T19:57:39.230Z,3.70
2023-01-07T20:00:04.386Z,3.88
2023-01-07T20:02:28.441Z,4.13
2023-01-07T20:04:52.054Z,4.10
2023-01-07T20:07:15.615Z,4.10
2023-01-07T20:09:40.580Z,4.90
2023-01-07T20:12:04.147Z,4.50
2023-01-07T20:14:27.700Z,4.55
2023-01-07T20:16:52.759Z,4.38
2023-01-07T20:19:16.507Z,4.72
2023-01-07T20:21:40.300Z,5.20
2023-01-07T20:24:06.266Z,4.75
2023-01-07T20:26:32.607Z,5.43
2023-01-07T20:28:56.486Z,5.68
2023-01-07T20:31:22.200Z,6.05
2023-01-07T20:33:47.307Z,5.78
2023-01-07T20:36:13.567Z,6.43
2023-01-07T20:38:37.671Z,5.80
2023-01-07T20:41:01.478Z,5.00
2023-01-07T20:43:25.887Z,5.32
2023-01-07T20:45:49.549Z,5.07
2023-01-07T20:48:15.402Z,5.68
2023-01-07T20:50:41.697Z,5.40
2023-01-07T20:53:05.261Z,5.20
2023-01-07T20:55:28.868Z,6.43
2023-01-07T20:57:52.470Z,5.60
2023-01-07T21:00:17.144Z,5.68
2023-01-07T21:02:40.856Z,5.57
2023-01-07T21:05:04.940Z,5.20
2023-01-07T21:07:30.360Z,5.80
2023-01-07T21:09:53.880Z,6.03
2023-01-07T21:12:17.547Z,6.28
2023-01-07T21:14:41.071Z,5.97
2023-01-07T21:17:04.935Z,6.82
2023-01-07T21:19:28.512Z,6.97
2023-01-07T21:21:52.096Z,6.85
2023-01-07T21:24:17.559Z,7.13
2023-01-07T21:26:41.310Z,6.78
2023-01-07T21:29:05.062Z,6.75
2023-01-07T21:31:29.165Z,6.82
2023-01-07T21:33:56.507Z,6.88
2023-01-07T21:36:20.772Z,6.93
2023-01-07T21:38:45.299Z,6.55
2023-01-07T21:41:13.422Z,6.68
2023-01-07T21:43:37.047Z,5.07
2023-01-07T21:46:01.166Z,6.97
2023-01-07T21:48:24.746Z,6.50
2023-01-07T21:50:48.301Z,6.43
2023-01-07T21:53:11.904Z,7.25
2023-01-07T21:55:38.822Z,6.72
2023-01-07T21:58:03.786Z,6.38
2023-01-07T22:00:27.361Z,6.50
2023-01-07T22:02:50.914Z,6.13
2023-01-07T22:05:14.532Z,6.60
2023-01-07T22:07:38.119Z,6.68
2023-01-07T22:10:02.437Z,5.88
2023-01-07T22:12:26.036Z,6.30
2023-01-07T22:14:51.010Z,6.15
2023-01-07T22:17:15.116Z,6.25
2023-01-07T22:19:38.715Z,6.00
2023-01-07T22:22:02.521Z,5.78
2023-01-07T22:24:26.098Z,5.97
2023-01-07T22:26:49.723Z,6.07
2023-01-07T22:29:14.768Z,5.75
2023-01-07T22:31:40.214Z,5.68
2023-01-07T22:34:04.398Z,5.70
2023-01-07T22:36:33.795Z,5.55
2023-01-07T22:39:02.503Z,5.93
2023-01-07T22:41:27.302Z,5.78
2023-01-07T22:43:51.871Z,5.93
2023-01-07T22:46:22.453Z,6.07
2023-01-07T22:48:47.652Z,6.13
2023-01-07T22:51:15.613Z,5.90
2023-01-07T22:53:39.300Z,6.45
2023-01-07T22:56:04.768Z,6.32
2023-01-07T22:58:28.426Z,6.50
2023-01-07T23:01:13.233Z,6.50
2023-01-07T23:03:36.946Z,6.65
2023-01-07T23:06:02.089Z,6.35
2023-01-07T23:08:25.885Z,5.93
2023-01-07T23:10:49.509Z,6.53
2023-01-07T23:13:13.327Z,6.30
2023-01-07T23:15:38.246Z,6.60
2023-01-07T23:18:01.852Z,6.55
2023-01-07T23:20:25.456Z,6.50
2023-01-07T23:22:50.434Z,6.22
2023-01-07T23:25:14.010Z,6.07
2023-01-07T23:27:39.356Z,6.38
2023-01-07T23:30:03.217Z,6.63
2023-01-07T23:32:26.954Z,6.65
2023-01-07T23:34:50.489Z,6.43
2023-01-07T23:37:14.102Z,6.68
2023-01-07T23:39:39.043Z,6.28
2023-01-07T23:42:02.665Z,6.60
2023-01-07T23:44:26.238Z,6.18
2023-01-07T23:46:49.904Z,6.20
2023-01-07T23:49:13.452Z,6.07
2023-01-07T23:51:37.113Z,6.22
2023-01-07T23:54:00.773Z,6.05
2023-01-07T23:56:25.810Z,6.03
2023-01-07T23:58:50.419Z,5.88
